createdAt,value
2023-02-27T00:01:00.414Z,14.60
2023-02-27T00:03:28.285Z,6.60
2023-02-27T00:05:56.467Z,5.47
2023-02-27T00:08:24.424Z,5.03
2023-02-27T00:10:52.172Z,5.70
2023-02-27T00:13:19.870Z,5.10
2023-02-27T00:15:49.464Z,5.47
2023-02-27T00:18:17.323Z,4.60
2023-02-27T00:20:45.082Z,6.27
2023-02-27T00:23:12.821Z,25.27
2023-02-27T00:25:40.644Z,8.13
2023-02-27T00:28:08.317Z,4.47
2023-02-27T00:30:36.049Z,4.00
2023-02-27T00:33:03.997Z,4.30
2023-02-27T00:35:31.737Z,6.03
2023-02-27T00:37:59.412Z,3.00
2023-02-27T00:40:27.383Z,5.70
2023-02-27T00:42:55.106Z,4.53
2023-02-27T00:45:22.951Z,5.20
2023-02-27T00:47:50.659Z,5.10
2023-02-27T00:50:18.454Z,6.13
2023-02-27T00:52:46.172Z,18.80
2023-02-27T00:55:13.928Z,7.70
2023-02-27T00:57:42.009Z,7.37
2023-02-27T01:00:10.466Z,6.20
2023-02-27T01:02:39.016Z,5.30
2023-02-27T01:05:08.845Z,4.70
2023-02-27T01:07:37.618Z,14.10
2023-02-27T01:10:06.268Z,7.03
2023-02-27T01:12:33.933Z,5.03
2023-02-27T01:15:01.740Z,5.50
2023-02-27T01:17:29.453Z,4.10
2023-02-27T01:19:57.475Z,4.10
2023-02-27T01:22:25.188Z,4.13
2023-02-27T01:24:52.930Z,3.53
2023-02-27T01:27:20.679Z,3.93
2023-02-27T01:29:48.360Z,6.93
2023-02-27T01:32:16.322Z,8.47
2023-02-27T01:34:44.654Z,4.07
2023-02-27T01:37:12.431Z,4.40
2023-02-27T01:39:43.586Z,3.93
2023-02-27T01:42:21.830Z,5.57
2023-02-27T01:45:17.581Z,3.80
2023-02-27T01:47:47.838Z,4.97
2023-02-27T01:50:16.104Z,3.80
2023-02-27T01:52:43.987Z,4.53
2023-02-27T01:55:13.298Z,3.70
2023-02-27T01:57:41.195Z,3.50
2023-02-27T02:00:09.664Z,4.20
2023-02-27T02:02:44.117Z,4.13
2023-02-27T02:05:14.445Z,3.87
2023-02-27T02:07:42.267Z,4.60
2023-02-27T02:10:11.950Z,4.90
2023-02-27T02:12:40.681Z,4.70
2023-02-27T02:15:10.250Z,5.53
2023-02-27T02:18:00.051Z,3.97
2023-02-27T02:20:49.748Z,5.43
2023-02-27T02:23:42.425Z,4.07
2023-02-27T02:26:31.054Z,5.73
2023-02-27T02:29:31.815Z,7.73
2023-02-27T02:32:08.534Z,4.70
2023-02-27T02:34:50.398Z,3.50
2023-02-27T02:37:33.891Z,3.70
2023-02-27T02:40:30.928Z,2.63
2023-02-27T02:43:06.432Z,3.43
2023-02-27T02:45:34.033Z,3.50
2023-02-27T02:48:12.461Z,4.63
2023-02-27T02:50:58.394Z,6.23
2023-02-27T02:53:36.053Z,3.73
2023-02-27T02:56:16.837Z,3.40
2023-02-27T02:59:18.735Z,3.33
2023-02-27T03:01:53.324Z,3.97
2023-02-27T03:04:27.980Z,3.63
2023-02-27T03:06:59.678Z,3.70
2023-02-27T03:09:46.481Z,4.10
2023-02-27T03:12:19.778Z,4.03
2023-02-27T03:15:17.588Z,3.20
2023-02-27T03:18:00.584Z,2.53
2023-02-27T03:20:31.165Z,2.80
2023-02-27T03:23:00.230Z,2.77
2023-02-27T03:25:28.334Z,2.73
2023-02-27T03:28:01.225Z,2.13
2023-02-27T03:30:36.424Z,1.93
2023-02-27T03:33:14.405Z,2.40
2023-02-27T03:35:47.382Z,2.13
2023-02-27T03:38:23.648Z,2.40
2023-02-27T03:41:04.198Z,1.70
2023-02-27T03:43:50.331Z,2.00
2023-02-27T03:46:21.085Z,1.77
2023-02-27T03:48:48.845Z,1.97
2023-02-27T03:51:20.780Z,1.90
2023-02-27T03:54:07.500Z,1.90
2023-02-27T03:57:04.400Z,1.37
2023-02-27T03:59:32.237Z,1.40
2023-02-27T04:02:00.641Z,2.27
2023-02-27T04:04:31.805Z,2.40
2023-02-27T04:07:31.958Z,1.80
2023-02-27T04:10:44.290Z,2.27
2023-02-27T04:13:50.533Z,3.33
2023-02-27T04:16:33.325Z,2.77
2023-02-27T04:19:12.762Z,2.67
2023-02-27T04:22:03.354Z,3.30
2023-02-27T04:25:03.593Z,4.00
2023-02-27T04:27:38.880Z,3.77
2023-02-27T04:30:25.612Z,3.07
2023-02-27T04:32:57.272Z,3.53
2023-02-27T04:35:44.009Z,2.93
2023-02-27T04:38:33.942Z,2.93
2023-02-27T04:41:13.831Z,5.37
2023-02-27T04:43:41.860Z,3.57
2023-02-27T04:46:11.163Z,5.30
2023-02-27T04:48:43.813Z,4.50
2023-02-27T04:51:14.492Z,3.63
2023-02-27T04:53:52.228Z,2.40
2023-02-27T04:56:44.829Z,2.17
2023-02-27T04:59:17.692Z,2.27
2023-02-27T05:01:48.219Z,2.73
2023-02-27T05:04:16.215Z,2.77
2023-02-27T05:06:45.345Z,3.33
2023-02-27T05:09:27.148Z,3.17
2023-02-27T05:11:59.064Z,3.03
2023-02-27T05:14:34.358Z,3.43
2023-02-27T05:17:05.216Z,3.47
2023-02-27T05:19:33.013Z,3.40
2023-02-27T05:22:11.500Z,3.53
2023-02-27T05:24:41.761Z,5.30
2023-02-27T05:27:31.447Z,3.33
2023-02-27T05:30:12.541Z,4.00
2023-02-27T05:32:43.567Z,3.70
2023-02-27T05:35:19.070Z,4.30
2023-02-27T05:38:08.245Z,4.00
2023-02-27T05:40:45.347Z,4.30
2023-02-27T05:43:17.014Z,3.97
2023-02-27T05:45:46.167Z,4.53
2023-02-27T05:48:28.890Z,3.60
2023-02-27T05:50:56.564Z,4.00
2023-02-27T05:53:26.015Z,4.27
2023-02-27T05:55:54.477Z,4.40
2023-02-27T05:58:41.988Z,4.47
2023-02-27T06:01:10.755Z,3.87
2023-02-27T06:03:39.245Z,4.23
2023-02-27T06:06:08.856Z,4.40
2023-02-27T06:08:36.570Z,6.97
2023-02-27T06:11:04.320Z,6.97
2023-02-27T06:13:32.083Z,5.53
2023-02-27T06:15:59.833Z,4.20
2023-02-27T06:18:27.586Z,3.90
2023-02-27T06:20:55.285Z,6.27
2023-02-27T06:23:23.241Z,7.10
2023-02-27T06:25:50.996Z,5.77
2023-02-27T06:28:18.953Z,4.50
2023-02-27T06:30:46.757Z,3.90
2023-02-27T06:33:14.533Z,4.10
2023-02-27T06:35:42.277Z,4.07
2023-02-27T06:38:10.604Z,4.43
2023-02-27T06:40:38.564Z,3.77
2023-02-27T06:43:06.322Z,4.33
2023-02-27T06:45:34.487Z,3.77
2023-02-27T06:48:02.181Z,4.00
2023-02-27T06:50:30.034Z,3.63
2023-02-27T06:52:57.878Z,2.93
2023-02-27T06:55:25.803Z,3.77
2023-02-27T06:57:53.505Z,3.60
2023-02-27T07:00:21.498Z,3.17
2023-02-27T07:02:49.285Z,15.93
2023-02-27T07:05:18.120Z,4.40
2023-02-27T07:07:46.046Z,4.10
2023-02-27T07:10:14.470Z,6.17
2023-02-27T07:12:42.198Z,6.03
2023-02-27T07:15:10.314Z,8.30
2023-02-27T07:17:38.073Z,10.30
2023-02-27T07:20:07.302Z,10.47
2023-02-27T07:22:35.200Z,11.73
2023-02-27T07:25:03.448Z,14.60
2023-02-27T07:27:31.416Z,8.43
2023-02-27T07:29:59.294Z,6.20
2023-02-27T07:32:27.636Z,5.90
2023-02-27T07:34:55.349Z,11.37
2023-02-27T07:37:23.136Z,5.23
2023-02-27T07:39:50.795Z,13.03
2023-02-27T07:42:18.562Z,13.60
2023-02-27T07:44:46.318Z,6.70
2023-02-27T07:47:14.071Z,4.67
2023-02-27T07:49:41.756Z,9.67
2023-02-27T07:52:09.481Z,6.60
2023-02-27T07:54:40.148Z,8.43
2023-02-27T07:57:07.942Z,7.10
2023-02-27T07:59:35.669Z,4.80
2023-02-27T08:02:03.477Z,5.47
2023-02-27T08:04:31.274Z,4.93
2023-02-27T08:06:59.050Z,4.30
2023-02-27T08:09:26.796Z,4.70
2023-02-27T08:11:54.482Z,4.60
2023-02-27T08:14:22.213Z,5.70
2023-02-27T08:16:49.955Z,4.43
2023-02-27T08:19:17.718Z,5.00
2023-02-27T08:21:45.474Z,4.63
2023-02-27T08:24:13.246Z,4.13
2023-02-27T08:26:40.924Z,4.67
2023-02-27T08:29:08.689Z,4.03
2023-02-27T08:31:36.447Z,4.43
2023-02-27T08:34:10.243Z,4.43
2023-02-27T08:36:38.697Z,4.53
2023-02-27T08:39:07.201Z,9.30
2023-02-27T08:41:35.026Z,4.70
2023-02-27T08:44:02.982Z,4.80
2023-02-27T08:46:30.759Z,4.20
2023-02-27T08:48:58.518Z,4.63
2023-02-27T08:51:26.648Z,3.50
2023-02-27T08:53:58.802Z,4.70
2023-02-27T08:56:26.914Z,8.97
2023-02-27T08:58:55.000Z,8.60
2023-02-27T09:01:22.772Z,5.17
2023-02-27T09:03:50.927Z,4.70
2023-02-27T09:06:18.597Z,5.13
2023-02-27T09:08:46.354Z,4.47
2023-02-27T09:11:14.076Z,5.20
2023-02-27T09:13:41.774Z,4.83
2023-02-27T09:16:10.284Z,4.93
2023-02-27T09:18:38.105Z,4.23
2023-02-27T09:21:05.966Z,4.53
2023-02-27T09:23:33.716Z,4.67
2023-02-27T09:26:01.372Z,4.30
2023-02-27T09:28:29.299Z,3.97
2023-02-27T09:31:01.128Z,4.03
2023-02-27T09:33:29.317Z,3.73
2023-02-27T09:35:57.116Z,4.53
2023-02-27T09:38:25.375Z,5.17
2023-02-27T09:40:53.828Z,4.90
2023-02-27T09:43:43.647Z,3.73
2023-02-27T09:46:19.069Z,4.10
2023-02-27T09:48:52.137Z,4.27
2023-02-27T09:51:19.985Z,4.33
2023-02-27T09:54:05.943Z,4.37
2023-02-27T09:56:48.727Z,4.40
2023-02-27T09:59:48.236Z,4.60
2023-02-27T10:02:24.879Z,3.77
2023-02-27T10:04:55.349Z,4.07
2023-02-27T10:07:33.732Z,4.37
2023-02-27T10:10:26.213Z,5.40
2023-02-27T10:13:06.414Z,9.93
2023-02-27T10:15:37.641Z,5.03
2023-02-27T10:18:25.549Z,4.50
2023-02-27T10:20:55.463Z,3.63
2023-02-27T10:23:34.450Z,4.93
2023-02-27T10:26:02.223Z,5.00
2023-02-27T10:28:29.945Z,4.83
2023-02-27T10:30:58.732Z,5.20
2023-02-27T10:33:37.474Z,5.07
2023-02-27T10:36:15.955Z,4.67
2023-02-27T10:38:59.761Z,4.80
2023-02-27T10:41:28.240Z,5.60
2023-02-27T10:43:57.986Z,5.90
2023-02-27T10:46:29.992Z,4.90
2023-02-27T10:49:01.970Z,4.77
2023-02-27T10:51:31.620Z,5.83
2023-02-27T10:54:24.294Z,5.07
2023-02-27T10:57:00.263Z,5.73
2023-02-27T10:59:27.902Z,6.07
2023-02-27T11:01:57.218Z,5.17
2023-02-27T11:04:36.517Z,5.57
2023-02-27T11:07:10.057Z,5.27
2023-02-27T11:09:37.938Z,5.93
2023-02-27T11:12:24.418Z,6.13
2023-02-27T11:15:03.309Z,5.50
2023-02-27T11:17:32.864Z,5.50
2023-02-27T11:20:01.727Z,5.60
2023-02-27T11:22:30.484Z,6.10
2023-02-27T11:25:19.128Z,6.03
2023-02-27T11:27:47.215Z,5.17
2023-02-27T11:30:27.292Z,5.20
2023-02-27T11:32:56.585Z,6.07
2023-02-27T11:35:28.768Z,7.03
2023-02-27T11:37:59.125Z,5.77
2023-02-27T11:40:50.802Z,5.20
2023-02-27T11:43:28.422Z,5.20
2023-02-27T11:46:04.805Z,4.80
2023-02-27T11:48:48.901Z,5.33
2023-02-27T11:51:26.051Z,5.70
2023-02-27T11:54:20.934Z,4.97
2023-02-27T11:56:52.769Z,5.87
2023-02-27T11:59:39.370Z,4.77
2023-02-27T12:02:09.857Z,5.03
2023-02-27T12:04:57.508Z,4.60
2023-02-27T12:07:44.974Z,4.03
2023-02-27T12:10:20.452Z,4.10
2023-02-27T12:13:01.255Z,4.90
2023-02-27T12:15:52.914Z,5.90
2023-02-27T12:18:23.822Z,5.50
2023-02-27T12:21:10.705Z,4.80
2023-02-27T12:23:53.486Z,4.87
2023-02-27T12:26:22.368Z,5.10
2023-02-27T12:29:20.909Z,6.13
2023-02-27T12:32:21.347Z,4.87
2023-02-27T12:34:54.620Z,4.80
2023-02-27T12:37:29.043Z,4.67
2023-02-27T12:39:59.118Z,4.30
2023-02-27T12:43:09.449Z,5.10
2023-02-27T12:46:08.093Z,4.80
2023-02-27T12:49:11.760Z,3.93
2023-02-27T12:52:12.953Z,4.97
2023-02-27T12:55:06.697Z,4.77
2023-02-27T12:57:49.616Z,4.37
2023-02-27T13:00:24.710Z,6.03
2023-02-27T13:03:23.463Z,5.77
2023-02-27T13:05:53.829Z,5.30
2023-02-27T13:08:44.939Z,4.83
2023-02-27T13:11:43.594Z,5.70
2023-02-27T13:14:24.746Z,5.13
2023-02-27T13:17:25.814Z,5.73
2023-02-27T13:20:21.487Z,11.53
2023-02-27T13:23:23.885Z,6.63
2023-02-27T13:25:51.718Z,7.67
2023-02-27T13:28:26.581Z,7.93
2023-02-27T13:31:20.736Z,6.50
2023-02-27T13:33:54.523Z,5.83
2023-02-27T13:36:28.092Z,6.40
2023-02-27T13:38:55.889Z,6.60
2023-02-27T13:41:23.449Z,6.37
2023-02-27T13:43:53.134Z,7.00
2023-02-27T13:46:24.725Z,7.37
2023-02-27T13:49:28.180Z,6.57
2023-02-27T13:51:59.392Z,8.20
2023-02-27T13:54:40.348Z,9.50
2023-02-27T13:57:18.114Z,7.63
2023-02-27T13:59:58.022Z,8.67
2023-02-27T14:02:33.852Z,6.63
2023-02-27T14:05:04.057Z,6.30
2023-02-27T14:07:48.841Z,5.50
2023-02-27T14:10:24.152Z,7.23
2023-02-27T14:12:53.042Z,6.23
2023-02-27T14:15:26.609Z,6.77
2023-02-27T14:18:05.851Z,7.47
2023-02-27T14:20:40.187Z,7.53
2023-02-27T14:23:17.097Z,7.40
2023-02-27T14:25:55.375Z,5.90
2023-02-27T14:28:36.341Z,6.70
2023-02-27T14:31:06.045Z,6.70
2023-02-27T14:33:42.156Z,5.67
2023-02-27T14:36:17.011Z,4.30
2023-02-27T14:38:44.818Z,6.83
2023-02-27T14:41:30.917Z,6.97
2023-02-27T14:43:58.666Z,7.10
2023-02-27T14:46:31.912Z,6.20
2023-02-27T14:49:01.951Z,8.50
2023-02-27T14:51:32.524Z,8.87
2023-02-27T14:54:07.238Z,8.20
2023-02-27T14:56:35.020Z,7.70
2023-02-27T14:59:04.646Z,10.40
2023-02-27T15:01:36.053Z,9.80
2023-02-27T15:04:04.498Z,10.40
2023-02-27T15:06:36.675Z,14.07
2023-02-27T15:09:04.538Z,14.60
2023-02-27T15:11:32.197Z,10.43
2023-02-27T15:14:04.681Z,8.40
2023-02-27T15:16:37.689Z,7.43
2023-02-27T15:19:11.981Z,5.87
2023-02-27T15:21:43.159Z,9.10
2023-02-27T15:24:27.748Z,5.90
2023-02-27T15:27:00.446Z,6.77
2023-02-27T15:29:33.157Z,10.60
2023-02-27T15:32:01.415Z,12.93
2023-02-27T15:34:30.757Z,10.90
2023-02-27T15:36:59.110Z,11.47
2023-02-27T15:39:28.801Z,10.30
2023-02-27T15:41:58.599Z,8.93
2023-02-27T15:44:29.292Z,9.13
2023-02-27T15:46:57.226Z,9.77
2023-02-27T15:49:25.052Z,9.80
2023-02-27T15:52:02.967Z,7.70
2023-02-27T15:54:34.599Z,7.50
2023-02-27T15:57:05.177Z,8.60
2023-02-27T15:59:34.854Z,8.03
2023-02-27T16:02:04.201Z,7.73
2023-02-27T16:04:33.296Z,8.37
2023-02-27T16:07:06.307Z,5.70
2023-02-27T16:09:35.328Z,7.33
2023-02-27T16:12:20.605Z,7.63
2023-02-27T16:14:49.028Z,7.70
2023-02-27T16:17:26.826Z,6.10
2023-02-27T16:19:55.477Z,5.57
2023-02-27T16:22:23.238Z,6.43
2023-02-27T16:24:51.268Z,9.83
2023-02-27T16:27:18.950Z,9.03
2023-02-27T16:29:46.687Z,8.57
2023-02-27T16:32:28.873Z,6.87
2023-02-27T16:35:08.017Z,6.07
2023-02-27T16:37:38.040Z,7.33
2023-02-27T16:40:25.462Z,8.53
2023-02-27T16:42:53.406Z,9.63
2023-02-27T16:45:25.858Z,9.03
2023-02-27T16:47:57.877Z,6.30
2023-02-27T16:50:42.971Z,5.20
2023-02-27T16:53:10.772Z,5.13
2023-02-27T16:55:39.360Z,5.70
2023-02-27T16:58:07.078Z,7.03
2023-02-27T17:00:34.917Z,7.13
2023-02-27T17:03:02.742Z,14.17
2023-02-27T17:05:30.569Z,6.37
2023-02-27T17:07:58.240Z,5.83
2023-02-27T17:10:26.307Z,6.90
2023-02-27T17:12:54.073Z,7.70
2023-02-27T17:15:22.116Z,8.20
2023-02-27T17:17:49.774Z,10.53
2023-02-27T17:20:17.701Z,10.33
2023-02-27T17:22:45.486Z,12.20
2023-02-27T17:25:13.547Z,9.50
2023-02-27T17:27:44.479Z,9.13
2023-02-27T17:30:13.284Z,7.27
2023-02-27T17:32:41.055Z,7.10
2023-02-27T17:35:09.281Z,6.80
2023-02-27T17:37:37.090Z,5.97
2023-02-27T17:40:06.325Z,6.23
2023-02-27T17:42:36.028Z,6.90
2023-02-27T17:45:05.612Z,6.40
2023-02-27T17:47:33.565Z,6.70
2023-02-27T17:50:01.316Z,6.90
2023-02-27T17:52:29.092Z,6.43
2023-02-27T17:54:56.927Z,5.80
2023-02-27T17:57:24.601Z,6.20
2023-02-27T17:59:52.329Z,4.87
2023-02-27T18:02:20.200Z,5.63
2023-02-27T18:04:48.422Z,9.57
2023-02-27T18:07:16.213Z,8.67
2023-02-27T18:09:45.760Z,6.23
2023-02-27T18:12:13.463Z,9.97
2023-02-27T18:14:41.162Z,6.57
2023-02-27T18:17:12.059Z,10.20
2023-02-27T18:19:41.604Z,10.90
2023-02-27T18:22:10.010Z,9.47
2023-02-27T18:24:38.236Z,10.10
2023-02-27T18:27:05.970Z,12.13
2023-02-27T18:29:33.817Z,10.53
2023-02-27T18:32:01.548Z,10.37
2023-02-27T18:34:29.327Z,12.17
2023-02-27T18:36:58.263Z,10.50
2023-02-27T18:39:26.164Z,8.70
2023-02-27T18:41:53.850Z,8.57
2023-02-27T18:44:21.583Z,7.03
2023-02-27T18:46:49.438Z,8.50
2023-02-27T18:49:17.255Z,7.73
2023-02-27T18:51:44.936Z,8.13
2023-02-27T18:54:13.733Z,7.67
2023-02-27T18:56:41.522Z,7.00
2023-02-27T18:59:09.395Z,7.13
2023-02-27T19:01:37.765Z,6.10
2023-02-27T19:04:07.175Z,7.67
2023-02-27T19:06:40.996Z,7.10
2023-02-27T19:09:11.830Z,5.83
2023-02-27T19:11:39.544Z,9.37
2023-02-27T19:14:08.489Z,11.63
2023-02-27T19:16:36.317Z,25.27
2023-02-27T19:19:04.952Z,11.70
2023-02-27T19:21:32.729Z,8.30
2023-02-27T19:24:00.778Z,13.13
2023-02-27T19:26:29.083Z,9.10
2023-02-27T19:28:57.274Z,5.20
2023-02-27T19:31:25.036Z,5.07
2023-02-27T19:33:52.843Z,4.53
2023-02-27T19:36:21.808Z,4.67
2023-02-27T19:38:49.665Z,5.27
2023-02-27T19:41:17.805Z,4.33
2023-02-27T19:43:45.864Z,4.93
2023-02-27T19:46:18.570Z,4.47
2023-02-27T19:48:46.438Z,4.63
2023-02-27T19:51:14.603Z,4.43
2023-02-27T19:53:43.183Z,5.57
2023-02-27T19:56:12.822Z,25.27
2023-02-27T19:58:40.819Z,33.03
2023-02-27T20:01:09.835Z,38.40
2023-02-27T20:03:38.069Z,13.87
2023-02-27T20:06:06.434Z,6.67
2023-02-27T20:08:34.235Z,5.60
2023-02-27T20:11:04.334Z,7.77
2023-02-27T20:13:32.057Z,8.83
2023-02-27T20:16:07.488Z,8.20
2023-02-27T20:18:39.326Z,6.73
2023-02-27T20:21:10.616Z,6.70
2023-02-27T20:23:39.326Z,8.53
2023-02-27T20:26:23.330Z,9.27
2023-02-27T20:28:52.157Z,8.23
2023-02-27T20:31:21.267Z,9.73
2023-02-27T20:33:49.264Z,9.77
2023-02-27T20:36:17.191Z,8.13
2023-02-27T20:38:45.007Z,7.63
2023-02-27T20:41:17.270Z,8.00
2023-02-27T20:43:45.107Z,7.83
2023-02-27T20:46:20.432Z,7.03
2023-02-27T20:48:48.163Z,7.30
2023-02-27T20:51:20.131Z,6.23
2023-02-27T20:53:51.572Z,6.53
2023-02-27T20:56:23.734Z,7.10
2023-02-27T20:58:51.501Z,7.37
2023-02-27T21:01:19.352Z,6.07
2023-02-27T21:03:47.295Z,5.73
2023-02-27T21:06:15.447Z,7.27
2023-02-27T21:08:45.507Z,7.43
2023-02-27T21:11:18.324Z,11.13
2023-02-27T21:13:47.169Z,8.43
2023-02-27T21:16:15.906Z,7.20
2023-02-27T21:18:44.037Z,6.27
2023-02-27T21:21:15.027Z,6.57
2023-02-27T21:23:42.957Z,6.70
2023-02-27T21:26:18.200Z,5.70
2023-02-27T21:28:52.133Z,6.57
2023-02-27T21:31:21.089Z,6.40
2023-02-27T21:33:49.300Z,6.13
2023-02-27T21:36:17.189Z,7.13
2023-02-27T21:38:45.988Z,7.07
2023-02-27T21:41:13.704Z,7.20
2023-02-27T21:43:41.441Z,7.20
2023-02-27T21:46:12.651Z,9.23
2023-02-27T21:48:40.447Z,9.63
2023-02-27T21:51:08.160Z,8.27
2023-02-27T21:53:36.950Z,6.97
2023-02-27T21:56:05.988Z,6.80
2023-02-27T21:58:33.914Z,7.47
2023-02-27T22:01:01.690Z,7.57
2023-02-27T22:03:34.315Z,7.53
2023-02-27T22:06:02.198Z,6.77
2023-02-27T22:08:29.915Z,6.50
2023-02-27T22:10:58.169Z,7.37
2023-02-27T22:13:26.328Z,6.30
2023-02-27T22:15:54.207Z,7.03
2023-02-27T22:18:21.906Z,6.17
2023-02-27T22:20:49.681Z,5.40
2023-02-27T22:23:17.473Z,6.13
2023-02-27T22:25:45.265Z,6.30
2023-02-27T22:28:12.997Z,6.57
2023-02-27T22:30:40.789Z,7.00
2023-02-27T22:33:08.722Z,7.20
2023-02-27T22:35:36.718Z,6.03
2023-02-27T22:38:04.449Z,6.63
2023-02-27T22:40:35.898Z,7.23
2023-02-27T22:43:03.929Z,6.30
2023-02-27T22:45:31.612Z,6.73
2023-02-27T22:47:59.307Z,6.10
2023-02-27T22:50:27.088Z,6.53
2023-02-27T22:52:54.766Z,6.47
2023-02-27T22:55:22.543Z,6.70
2023-02-27T22:57:51.805Z,6.00
2023-02-27T23:00:19.595Z,5.17
2023-02-27T23:02:47.250Z,5.37
2023-02-27T23:05:15.029Z,6.53
2023-02-27T23:07:43.694Z,6.17
2023-02-27T23:10:12.266Z,6.40
2023-02-27T23:12:39.956Z,6.40
2023-02-27T23:15:08.482Z,6.10
2023-02-27T23:17:38.149Z,6.53
2023-02-27T23:20:11.838Z,4.90
2023-02-27T23:22:39.497Z,4.60
2023-02-27T23:25:09.167Z,4.20
2023-02-27T23:27:36.852Z,4.00
2023-02-27T23:30:05.004Z,3.97
2023-02-27T23:32:43.625Z,4.13
2023-02-27T23:35:12.187Z,4.47
2023-02-27T23:37:39.964Z,5.20
2023-02-27T23:40:08.207Z,5.07
2023-02-27T23:42:35.980Z,5.80
2023-02-27T23:45:22.238Z,6.27
2023-02-27T23:47:54.877Z,4.00
2023-02-27T23:50:25.154Z,4.57
2023-02-27T23:52:53.741Z,4.63
2023-02-27T23:55:22.689Z,4.43
2023-02-27T23:57:53.756Z,9.30
